sensor_id;sensor_type;location;lat;lon;timestamp;pressure;altitude;pressure_sealevel;temperature;humidity
74613;BME280;63119;51.788;8.824;2024-01-25T00:01:27;100899.69;;;9.27;78.13
74613;BME280;63119;51.788;8.824;2024-01-25T00:03:53;100896.91;;;9.30;78.02
74613;BME280;63119;51.788;8.824;2024-01-25T00:06:18;100906.97;;;9.22;78.86
74613;BME280;63119;51.788;8.824;2024-01-25T00:08:43;100904.88;;;9.28;78.80
74613;BME280;63119;51.788;8.824;2024-01-25T00:11:08;100907.63;;;9.27;78.70
74613;BME280;63119;51.788;8.824;2024-01-25T00:13:34;100915.59;;;9.25;79.05
74613;BME280;63119;51.788;8.824;2024-01-25T00:16:00;100908.41;;;9.29;78.52
74613;BME280;63119;51.788;8.824;2024-01-25T00:18:25;100921.78;;;9.24;78.92
74613;BME280;63119;51.788;8.824;2024-01-25T00:20:50;100920.81;;;9.27;78.97
74613;BME280;63119;51.788;8.824;2024-01-25T00:23:16;100909.69;;;9.20;78.88
74613;BME280;63119;51.788;8.824;2024-01-25T00:25:41;100912.19;;;9.23;79.36
74613;BME280;63119;51.788;8.824;2024-01-25T00:28:06;100917.09;;;9.31;78.95
74613;BME280;63119;51.788;8.824;2024-01-25T00:30:31;100916.66;;;9.21;79.38
74613;BME280;63119;51.788;8.824;2024-01-25T00:32:57;100923.09;;;9.16;79.58
74613;BME280;63119;51.788;8.824;2024-01-25T00:35:23;100921.94;;;9.21;78.80
74613;BME280;63119;51.788;8.824;2024-01-25T00:37:49;100923.25;;;9.13;79.99
74613;BME280;63119;51.788;8.824;2024-01-25T00:40:15;100928.09;;;9.22;79.83
74613;BME280;63119;51.788;8.824;2024-01-25T00:42:42;100928.53;;;9.13;79.23
74613;BME280;63119;51.788;8.824;2024-01-25T00:45:08;100920.97;;;9.24;78.86
74613;BME280;63119;51.788;8.824;2024-01-25T00:47:34;100921.16;;;9.19;79.38
74613;BME280;63119;51.788;8.824;2024-01-25T00:49:59;100926.69;;;9.15;79.94
74613;BME280;63119;51.788;8.824;2024-01-25T00:52:25;100924.38;;;9.26;78.92
74613;BME280;63119;51.788;8.824;2024-01-25T00:54:50;100931.53;;;9.24;79.75
74613;BME280;63119;51.788;8.824;2024-01-25T00:57:16;100922.94;;;9.19;79.55
74613;BME280;63119;51.788;8.824;2024-01-25T00:59:42;100934.31;;;9.21;79.78
74613;BME280;63119;51.788;8.824;2024-01-25T01:02:11;100939.09;;;9.13;79.73
74613;BME280;63119;51.788;8.824;2024-01-25T01:04:36;100927.22;;;9.03;79.86
74613;BME280;63119;51.788;8.824;2024-01-25T01:07:02;100939.22;;;9.10;79.78
74613;BME280;63119;51.788;8.824;2024-01-25T01:09:27;100934.53;;;9.16;79.65
74613;BME280;63119;51.788;8.824;2024-01-25T01:11:53;100936.81;;;9.05;80.10
74613;BME280;63119;51.788;8.824;2024-01-25T01:14:18;100946.13;;;9.12;79.31
74613;BME280;63119;51.788;8.824;2024-01-25T01:16:43;100956.69;;;9.12;80.02
74613;BME280;63119;51.788;8.824;2024-01-25T01:19:09;100943.66;;;9.09;80.16
74613;BME280;63119;51.788;8.824;2024-01-25T01:21:34;100943.72;;;9.08;80.04
74613;BME280;63119;51.788;8.824;2024-01-25T01:24:00;100949.34;;;9.00;80.34
74613;BME280;63119;51.788;8.824;2024-01-25T01:26:25;100954.13;;;8.92;81.23
74613;BME280;63119;51.788;8.824;2024-01-25T01:28:50;100950.50;;;8.95;81.38
74613;BME280;63119;51.788;8.824;2024-01-25T01:31:16;100949.63;;;8.94;80.95
74613;BME280;63119;51.788;8.824;2024-01-25T01:33:41;100950.13;;;8.84;81.40
74613;BME280;63119;51.788;8.824;2024-01-25T01:36:06;100957.56;;;8.94;81.51
74613;BME280;63119;51.788;8.824;2024-01-25T01:38:31;100952.06;;;8.99;81.63
74613;BME280;63119;51.788;8.824;2024-01-25T01:40:57;100951.22;;;8.98;81.37
74613;BME280;63119;51.788;8.824;2024-01-25T01:43:22;100956.19;;;8.86;82.04
74613;BME280;63119;51.788;8.824;2024-01-25T01:45:48;100959.69;;;8.86;82.03
74613;BME280;63119;51.788;8.824;2024-01-25T01:48:14;100953.56;;;8.86;82.20
74613;BME280;63119;51.788;8.824;2024-01-25T01:50:40;100962.38;;;8.85;82.20
74613;BME280;63119;51.788;8.824;2024-01-25T01:53:05;100969.38;;;8.86;82.52
74613;BME280;63119;51.788;8.824;2024-01-25T01:55:31;100971.25;;;8.84;82.38
74613;BME280;63119;51.788;8.824;2024-01-25T01:57:57;100965.97;;;8.84;82.69
74613;BME280;63119;51.788;8.824;2024-01-25T02:00:23;100972.16;;;8.83;82.79
74613;BME280;63119;51.788;8.824;2024-01-25T02:02:49;100986.22;;;8.83;83.25
74613;BME280;63119;51.788;8.824;2024-01-25T02:05:14;100973.75;;;8.87;82.11
74613;BME280;63119;51.788;8.824;2024-01-25T02:07:40;100981.28;;;8.75;83.55
74613;BME280;63119;51.788;8.824;2024-01-25T02:10:06;100976.00;;;8.75;82.84
74613;BME280;63119;51.788;8.824;2024-01-25T02:12:31;100979.50;;;8.76;82.59
74613;BME280;63119;51.788;8.824;2024-01-25T02:14:57;100969.94;;;8.73;83.58
74613;BME280;63119;51.788;8.824;2024-01-25T02:17:22;100978.91;;;8.69;83.40
74613;BME280;63119;51.788;8.824;2024-01-25T02:19:47;100970.84;;;8.72;83.57
74613;BME280;63119;51.788;8.824;2024-01-25T02:22:16;100968.63;;;8.63;83.46
74613;BME280;63119;51.788;8.824;2024-01-25T02:24:42;100969.22;;;8.70;83.33
74613;BME280;63119;51.788;8.824;2024-01-25T02:27:07;100967.06;;;8.59;83.73
74613;BME280;63119;51.788;8.824;2024-01-25T02:29:32;100969.63;;;8.81;82.71
74613;BME280;63119;51.788;8.824;2024-01-25T02:31:57;100977.47;;;8.62;83.31
74613;BME280;63119;51.788;8.824;2024-01-25T02:34:23;100975.72;;;8.63;84.06
74613;BME280;63119;51.788;8.824;2024-01-25T02:36:48;100980.91;;;8.64;83.16
74613;BME280;63119;51.788;8.824;2024-01-25T02:39:13;100976.81;;;8.57;83.87
74613;BME280;63119;51.788;8.824;2024-01-25T02:41:38;100986.31;;;8.61;84.09
74613;BME280;63119;51.788;8.824;2024-01-25T02:44:04;100985.66;;;8.56;83.81
74613;BME280;63119;51.788;8.824;2024-01-25T02:46:29;100979.72;;;8.51;84.24
74613;BME280;63119;51.788;8.824;2024-01-25T02:48:54;100983.88;;;8.57;84.30
74613;BME280;63119;51.788;8.824;2024-01-25T02:51:19;100981.44;;;8.52;84.21
74613;BME280;63119;51.788;8.824;2024-01-25T02:53:44;100963.31;;;8.45;84.80
74613;BME280;63119;51.788;8.824;2024-01-25T02:56:10;100974.19;;;8.37;84.85
74613;BME280;63119;51.788;8.824;2024-01-25T02:58:35;100978.06;;;8.49;84.33
74613;BME280;63119;51.788;8.824;2024-01-25T03:01:00;100982.63;;;8.45;84.71
74613;BME280;63119;51.788;8.824;2024-01-25T03:03:25;100968.78;;;8.40;84.45
74613;BME280;63119;51.788;8.824;2024-01-25T03:05:51;100967.88;;;8.41;84.76
74613;BME280;63119;51.788;8.824;2024-01-25T03:08:16;100960.22;;;8.35;85.30
74613;BME280;63119;51.788;8.824;2024-01-25T03:10:42;100962.78;;;8.37;84.83
74613;BME280;63119;51.788;8.824;2024-01-25T03:13:07;100981.44;;;8.32;85.51
74613;BME280;63119;51.788;8.824;2024-01-25T03:15:32;100988.41;;;8.33;85.26
74613;BME280;63119;51.788;8.824;2024-01-25T03:17:57;100971.78;;;8.33;84.77
74613;BME280;63119;51.788;8.824;2024-01-25T03:20:23;100977.88;;;8.33;85.24
74613;BME280;63119;51.788;8.824;2024-01-25T03:22:48;100996.91;;;8.19;85.95
74613;BME280;63119;51.788;8.824;2024-01-25T03:25:13;100989.16;;;8.37;85.60
74613;BME280;63119;51.788;8.824;2024-01-25T03:27:39;101003.03;;;8.20;85.93
74613;BME280;63119;51.788;8.824;2024-01-25T03:30:04;100997.41;;;8.29;85.58
74613;BME280;63119;51.788;8.824;2024-01-25T03:32:31;101000.09;;;8.28;85.52
74613;BME280;63119;51.788;8.824;2024-01-25T03:34:56;101004.25;;;8.33;85.06
74613;BME280;63119;51.788;8.824;2024-01-25T03:37:21;100990.41;;;8.28;84.97
74613;BME280;63119;51.788;8.824;2024-01-25T03:39:46;100989.63;;;8.24;85.38
74613;BME280;63119;51.788;8.824;2024-01-25T03:42:12;101006.53;;;8.20;86.13
74613;BME280;63119;51.788;8.824;2024-01-25T03:44:37;101018.41;;;8.31;85.19
74613;BME280;63119;51.788;8.824;2024-01-25T03:47:02;101020.28;;;8.29;85.31
74613;BME280;63119;51.788;8.824;2024-01-25T03:49:28;101029.13;;;8.26;85.08
74613;BME280;63119;51.788;8.824;2024-01-25T03:51:53;101036.31;;;8.22;84.97
74613;BME280;63119;51.788;8.824;2024-01-25T03:54:18;101040.31;;;8.11;85.64
74613;BME280;63119;51.788;8.824;2024-01-25T03:56:43;101031.22;;;8.18;85.18
74613;BME280;63119;51.788;8.824;2024-01-25T03:59:09;101039.94;;;8.20;84.98
74613;BME280;63119;51.788;8.824;2024-01-25T04:01:46;101047.78;;;8.21;85.49
74613;BME280;63119;51.788;8.824;2024-01-25T04:04:14;101051.53;;;8.16;85.59
74613;BME280;63119;51.788;8.824;2024-01-25T04:06:42;101052.13;;;8.22;85.19
74613;BME280;63119;51.788;8.824;2024-01-25T04:09:11;101052.44;;;8.15;85.14
74613;BME280;63119;51.788;8.824;2024-01-25T04:11:37;101048.50;;;8.25;84.99
74613;BME280;63119;51.788;8.824;2024-01-25T04:14:03;101040.72;;;8.22;84.13
74613;BME280;63119;51.788;8.824;2024-01-25T04:16:28;101049.00;;;8.13;84.94
74613;BME280;63119;51.788;8.824;2024-01-25T04:18:53;101048.09;;;7.92;85.67
74613;BME280;63119;51.788;8.824;2024-01-25T04:21:18;101050.00;;;7.89;85.69
74613;BME280;63119;51.788;8.824;2024-01-25T04:23:44;101047.25;;;7.92;85.12
74613;BME280;63119;51.788;8.824;2024-01-25T04:26:09;101052.09;;;8.02;85.42
74613;BME280;63119;51.788;8.824;2024-01-25T04:28:34;101040.81;;;7.99;85.18
74613;BME280;63119;51.788;8.824;2024-01-25T04:30:59;101037.75;;;7.88;85.77
74613;BME280;63119;51.788;8.824;2024-01-25T04:33:25;101025.88;;;7.78;86.06
74613;BME280;63119;51.788;8.824;2024-01-25T04:35:50;101047.00;;;7.98;85.61
74613;BME280;63119;51.788;8.824;2024-01-25T04:38:15;101049.13;;;7.88;86.11
74613;BME280;63119;51.788;8.824;2024-01-25T04:40:40;101044.72;;;7.89;86.08
74613;BME280;63119;51.788;8.824;2024-01-25T04:43:06;101041.69;;;7.78;86.15
74613;BME280;63119;51.788;8.824;2024-01-25T04:45:31;101048.41;;;7.85;86.16
74613;BME280;63119;51.788;8.824;2024-01-25T04:47:56;101047.69;;;7.81;86.33
74613;BME280;63119;51.788;8.824;2024-01-25T04:50:21;101051.13;;;7.83;86.60
74613;BME280;63119;51.788;8.824;2024-01-25T04:52:47;101058.41;;;7.77;85.76
74613;BME280;63119;51.788;8.824;2024-01-25T04:55:12;101050.44;;;7.78;86.33
74613;BME280;63119;51.788;8.824;2024-01-25T04:57:37;101063.03;;;7.70;86.21
74613;BME280;63119;51.788;8.824;2024-01-25T05:00:03;101063.31;;;7.86;85.29
74613;BME280;63119;51.788;8.824;2024-01-25T05:02:28;101069.84;;;7.76;85.90
74613;BME280;63119;51.788;8.824;2024-01-25T05:04:53;101060.25;;;7.75;85.76
74613;BME280;63119;51.788;8.824;2024-01-25T05:07:19;101059.41;;;7.72;85.19
74613;BME280;63119;51.788;8.824;2024-01-25T05:09:44;101069.78;;;7.77;84.96
74613;BME280;63119;51.788;8.824;2024-01-25T05:12:09;101062.75;;;7.78;84.60
74613;BME280;63119;51.788;8.824;2024-01-25T05:14:35;101067.53;;;7.68;85.46
74613;BME280;63119;51.788;8.824;2024-01-25T05:17:00;101063.13;;;7.68;85.59
74613;BME280;63119;51.788;8.824;2024-01-25T05:19:25;101074.28;;;7.75;85.28
74613;BME280;63119;51.788;8.824;2024-01-25T05:21:50;101076.91;;;7.75;85.08
74613;BME280;63119;51.788;8.824;2024-01-25T05:24:16;101085.66;;;7.76;85.00
74613;BME280;63119;51.788;8.824;2024-01-25T05:26:41;101086.50;;;7.76;84.81
74613;BME280;63119;51.788;8.824;2024-01-25T05:29:06;101082.84;;;7.80;84.89
74613;BME280;63119;51.788;8.824;2024-01-25T05:31:32;101086.00;;;7.66;85.65
74613;BME280;63119;51.788;8.824;2024-01-25T05:33:57;101080.84;;;7.63;85.51
74613;BME280;63119;51.788;8.824;2024-01-25T05:36:22;101077.97;;;7.69;85.22
74613;BME280;63119;51.788;8.824;2024-01-25T05:38:48;101089.22;;;7.75;84.85
74613;BME280;63119;51.788;8.824;2024-01-25T05:41:13;101075.94;;;7.54;85.83
74613;BME280;63119;51.788;8.824;2024-01-25T05:43:38;101086.31;;;7.59;85.26
74613;BME280;63119;51.788;8.824;2024-01-25T05:46:03;101085.25;;;7.63;84.56
74613;BME280;63119;51.788;8.824;2024-01-25T05:48:29;101089.94;;;7.56;85.64
74613;BME280;63119;51.788;8.824;2024-01-25T05:50:54;101086.97;;;7.64;84.74
74613;BME280;63119;51.788;8.824;2024-01-25T05:53:19;101091.28;;;7.66;84.94
74613;BME280;63119;51.788;8.824;2024-01-25T05:55:46;101101.06;;;7.63;85.37
74613;BME280;63119;51.788;8.824;2024-01-25T05:58:11;101095.06;;;7.59;85.41
74613;BME280;63119;51.788;8.824;2024-01-25T06:00:36;101101.28;;;7.57;85.21
74613;BME280;63119;51.788;8.824;2024-01-25T06:03:02;101110.38;;;7.50;86.13
74613;BME280;63119;51.788;8.824;2024-01-25T06:05:27;101099.28;;;7.63;85.63
74613;BME280;63119;51.788;8.824;2024-01-25T06:07:52;101098.81;;;7.76;84.75
74613;BME280;63119;51.788;8.824;2024-01-25T06:10:18;101098.72;;;7.55;85.66
74613;BME280;63119;51.788;8.824;2024-01-25T06:12:43;101098.78;;;7.54;86.27
74613;BME280;63119;51.788;8.824;2024-01-25T06:15:08;101095.03;;;7.38;87.15
74613;BME280;63119;51.788;8.824;2024-01-25T06:17:34;101109.84;;;7.40;87.28
74613;BME280;63119;51.788;8.824;2024-01-25T06:19:59;101103.22;;;7.53;86.33
74613;BME280;63119;51.788;8.824;2024-01-25T06:22:24;101095.53;;;7.47;86.69
74613;BME280;63119;51.788;8.824;2024-01-25T06:24:50;101098.84;;;7.52;86.78
74613;BME280;63119;51.788;8.824;2024-01-25T06:27:15;101111.34;;;7.47;87.61
74613;BME280;63119;51.788;8.824;2024-01-25T06:29:40;101106.41;;;7.38;87.02
74613;BME280;63119;51.788;8.824;2024-01-25T06:32:06;101116.88;;;7.40;87.26
74613;BME280;63119;51.788;8.824;2024-01-25T06:34:31;101108.53;;;7.29;87.42
74613;BME280;63119;51.788;8.824;2024-01-25T06:36:57;101127.59;;;7.35;87.35
74613;BME280;63119;51.788;8.824;2024-01-25T06:39:22;101133.56;;;7.39;87.06
74613;BME280;63119;51.788;8.824;2024-01-25T06:41:47;101119.69;;;7.35;86.56
74613;BME280;63119;51.788;8.824;2024-01-25T06:44:12;101131.91;;;7.36;87.44
74613;BME280;63119;51.788;8.824;2024-01-25T06:46:38;101133.53;;;7.40;87.32
74613;BME280;63119;51.788;8.824;2024-01-25T06:49:03;101126.13;;;7.27;87.58
74613;BME280;63119;51.788;8.824;2024-01-25T06:51:28;101131.38;;;7.27;87.48
74613;BME280;63119;51.788;8.824;2024-01-25T06:53:54;101132.84;;;7.35;87.28
74613;BME280;63119;51.788;8.824;2024-01-25T06:56:19;101135.97;;;7.22;88.18
74613;BME280;63119;51.788;8.824;2024-01-25T06:58:44;101135.06;;;7.23;87.60
74613;BME280;63119;51.788;8.824;2024-01-25T07:01:10;101146.94;;;7.34;87.63
74613;BME280;63119;51.788;8.824;2024-01-25T07:03:35;101142.78;;;7.27;87.54
74613;BME280;63119;51.788;8.824;2024-01-25T07:06:00;101152.31;;;7.31;87.17
74613;BME280;63119;51.788;8.824;2024-01-25T07:08:25;101152.84;;;7.16;87.64
74613;BME280;63119;51.788;8.824;2024-01-25T07:10:51;101161.53;;;7.18;88.00
74613;BME280;63119;51.788;8.824;2024-01-25T07:13:17;101165.69;;;7.25;87.61
74613;BME280;63119;51.788;8.824;2024-01-25T07:15:42;101167.53;;;7.23;87.73
74613;BME280;63119;51.788;8.824;2024-01-25T07:18:07;101176.66;;;7.13;88.11
74613;BME280;63119;51.788;8.824;2024-01-25T07:20:32;101166.22;;;7.10;88.35
74613;BME280;63119;51.788;8.824;2024-01-25T07:22:58;101164.56;;;7.07;88.25
74613;BME280;63119;51.788;8.824;2024-01-25T07:25:23;101165.47;;;7.06;88.55
74613;BME280;63119;51.788;8.824;2024-01-25T07:27:48;101161.09;;;7.05;88.32
74613;BME280;63119;51.788;8.824;2024-01-25T07:30:15;101172.38;;;7.09;88.47
74613;BME280;63119;51.788;8.824;2024-01-25T07:32:40;101176.78;;;7.08;88.54
74613;BME280;63119;51.788;8.824;2024-01-25T07:35:08;101172.59;;;7.03;88.71
74613;BME280;63119;51.788;8.824;2024-01-25T07:37:37;101172.78;;;6.98;88.87
74613;BME280;63119;51.788;8.824;2024-01-25T07:40:02;101168.97;;;7.07;89.01
74613;BME280;63119;51.788;8.824;2024-01-25T07:42:31;101178.03;;;6.98;88.80
74613;BME280;63119;51.788;8.824;2024-01-25T07:44:57;101176.19;;;7.00;89.32
74613;BME280;63119;51.788;8.824;2024-01-25T07:47:22;101182.91;;;7.09;88.81
74613;BME280;63119;51.788;8.824;2024-01-25T07:49:48;101183.75;;;6.85;89.28
74613;BME280;63119;51.788;8.824;2024-01-25T07:52:13;101185.28;;;6.92;89.17
74613;BME280;63119;51.788;8.824;2024-01-25T07:54:38;101192.53;;;7.10;88.60
74613;BME280;63119;51.788;8.824;2024-01-25T07:57:04;101193.88;;;6.97;88.77
74613;BME280;63119;51.788;8.824;2024-01-25T07:59:29;101187.91;;;6.92;89.37
74613;BME280;63119;51.788;8.824;2024-01-25T08:01:54;101201.09;;;7.17;89.56
74613;BME280;63119;51.788;8.824;2024-01-25T08:04:20;101209.22;;;7.09;89.30
74613;BME280;63119;51.788;8.824;2024-01-25T08:06:45;101195.19;;;7.10;89.48
74613;BME280;63119;51.788;8.824;2024-01-25T08:09:10;101198.50;;;7.15;89.26
74613;BME280;63119;51.788;8.824;2024-01-25T08:11:35;101201.41;;;7.07;88.44
74613;BME280;63119;51.788;8.824;2024-01-25T08:14:01;101198.91;;;7.03;88.61
74613;BME280;63119;51.788;8.824;2024-01-25T08:16:26;101201.13;;;7.15;88.61
74613;BME280;63119;51.788;8.824;2024-01-25T08:18:51;101207.00;;;7.23;88.39
74613;BME280;63119;51.788;8.824;2024-01-25T08:21:17;101215.69;;;7.00;88.89
74613;BME280;63119;51.788;8.824;2024-01-25T08:23:42;101205.81;;;7.07;88.66
74613;BME280;63119;51.788;8.824;2024-01-25T08:26:08;101219.81;;;7.07;88.69
74613;BME280;63119;51.788;8.824;2024-01-25T08:28:40;101221.94;;;6.96;88.96
74613;BME280;63119;51.788;8.824;2024-01-25T08:31:06;101215.47;;;7.06;88.64
74613;BME280;63119;51.788;8.824;2024-01-25T08:33:32;101226.97;;;7.04;88.75
74613;BME280;63119;51.788;8.824;2024-01-25T08:35:57;101214.69;;;7.03;89.71
74613;BME280;63119;51.788;8.824;2024-01-25T08:38:22;101221.53;;;7.08;89.27
74613;BME280;63119;51.788;8.824;2024-01-25T08:40:47;101225.13;;;7.06;89.39
74613;BME280;63119;51.788;8.824;2024-01-25T08:43:13;101219.75;;;7.09;88.71
74613;BME280;63119;51.788;8.824;2024-01-25T08:45:38;101233.34;;;6.97;89.57
74613;BME280;63119;51.788;8.824;2024-01-25T08:48:04;101247.56;;;6.91;90.03
74613;BME280;63119;51.788;8.824;2024-01-25T08:50:29;101249.94;;;6.99;90.31
74613;BME280;63119;51.788;8.824;2024-01-25T08:52:54;101252.09;;;7.12;89.85
74613;BME280;63119;51.788;8.824;2024-01-25T08:55:20;101256.78;;;7.04;89.56
74613;BME280;63119;51.788;8.824;2024-01-25T08:57:45;101257.53;;;7.08;89.32
74613;BME280;63119;51.788;8.824;2024-01-25T09:00:11;101261.06;;;7.07;89.74
74613;BME280;63119;51.788;8.824;2024-01-25T09:02:37;101256.59;;;7.09;90.11
74613;BME280;63119;51.788;8.824;2024-01-25T09:05:04;101248.25;;;6.96;90.60
74613;BME280;63119;51.788;8.824;2024-01-25T09:07:30;101244.41;;;7.06;90.08
74613;BME280;63119;51.788;8.824;2024-01-25T09:09:55;101252.22;;;7.09;90.51
74613;BME280;63119;51.788;8.824;2024-01-25T09:12:20;101257.56;;;7.06;90.13
74613;BME280;63119;51.788;8.824;2024-01-25T09:14:46;101259.00;;;7.17;90.00
74613;BME280;63119;51.788;8.824;2024-01-25T09:17:11;101256.72;;;7.06;90.29
74613;BME280;63119;51.788;8.824;2024-01-25T09:19:36;101257.84;;;7.24;90.46
74613;BME280;63119;51.788;8.824;2024-01-25T09:22:02;101255.16;;;7.00;90.85
74613;BME280;63119;51.788;8.824;2024-01-25T09:24:30;101254.59;;;7.17;90.41
74613;BME280;63119;51.788;8.824;2024-01-25T09:26:56;101267.91;;;7.12;90.15
74613;BME280;63119;51.788;8.824;2024-01-25T09:29:21;101272.06;;;7.20;90.37
74613;BME280;63119;51.788;8.824;2024-01-25T09:31:47;101277.97;;;7.26;89.82
74613;BME280;63119;51.788;8.824;2024-01-25T09:34:12;101271.13;;;7.21;90.04
74613;BME280;63119;51.788;8.824;2024-01-25T09:36:37;101280.72;;;7.23;90.39
74613;BME280;63119;51.788;8.824;2024-01-25T09:39:02;101277.91;;;7.28;90.24
74613;BME280;63119;51.788;8.824;2024-01-25T09:41:29;101268.03;;;7.34;89.62
74613;BME280;63119;51.788;8.824;2024-01-25T09:43:54;101266.28;;;7.35;89.92
74613;BME280;63119;51.788;8.824;2024-01-25T09:46:20;101260.19;;;7.33;89.64
74613;BME280;63119;51.788;8.824;2024-01-25T09:48:45;101265.03;;;7.45;88.97
74613;BME280;63119;51.788;8.824;2024-01-25T09:51:12;101276.63;;;7.39;89.29
74613;BME280;63119;51.788;8.824;2024-01-25T09:53:39;101275.03;;;7.35;89.77
74613;BME280;63119;51.788;8.824;2024-01-25T09:56:09;101266.94;;;7.41;89.18
74613;BME280;63119;51.788;8.824;2024-01-25T09:58:40;101273.84;;;7.44;89.13
74613;BME280;63119;51.788;8.824;2024-01-25T10:01:10;101276.41;;;7.45;89.18
74613;BME280;63119;51.788;8.824;2024-01-25T10:03:36;101289.69;;;7.42;89.37
74613;BME280;63119;51.788;8.824;2024-01-25T10:06:02;101275.66;;;7.42;89.37
74613;BME280;63119;51.788;8.824;2024-01-25T10:08:29;101279.88;;;7.47;89.46
74613;BME280;63119;51.788;8.824;2024-01-25T10:10:54;101288.78;;;7.43;89.52
74613;BME280;63119;51.788;8.824;2024-01-25T10:13:19;101291.91;;;7.54;90.09
74613;BME280;63119;51.788;8.824;2024-01-25T10:15:45;101294.41;;;7.59;89.33
74613;BME280;63119;51.788;8.824;2024-01-25T10:18:13;101289.38;;;7.51;88.93
74613;BME280;63119;51.788;8.824;2024-01-25T10:20:39;101299.31;;;7.43;89.28
74613;BME280;63119;51.788;8.824;2024-01-25T10:23:08;101309.06;;;7.41;90.23
74613;BME280;63119;51.788;8.824;2024-01-25T10:25:36;101312.53;;;7.42;89.42
74613;BME280;63119;51.788;8.824;2024-01-25T10:28:06;101317.97;;;7.37;89.63
74613;BME280;63119;51.788;8.824;2024-01-25T10:30:33;101313.19;;;7.48;89.62
74613;BME280;63119;51.788;8.824;2024-01-25T10:32:59;101313.19;;;7.48;88.96
74613;BME280;63119;51.788;8.824;2024-01-25T10:35:25;101311.72;;;7.40;90.12
74613;BME280;63119;51.788;8.824;2024-01-25T10:37:51;101305.47;;;7.44;89.15
74613;BME280;63119;51.788;8.824;2024-01-25T10:40:18;101313.91;;;7.53;89.83
74613;BME280;63119;51.788;8.824;2024-01-25T10:42:44;101302.94;;;7.65;89.00
74613;BME280;63119;51.788;8.824;2024-01-25T10:45:09;101303.06;;;7.62;89.06
74613;BME280;63119;51.788;8.824;2024-01-25T10:47:35;101298.72;;;7.60;89.12
74613;BME280;63119;51.788;8.824;2024-01-25T10:50:01;101306.31;;;7.69;88.62
74613;BME280;63119;51.788;8.824;2024-01-25T10:52:28;101300.78;;;7.77;88.53
74613;BME280;63119;51.788;8.824;2024-01-25T10:54:54;101296.38;;;7.77;88.10
74613;BME280;63119;51.788;8.824;2024-01-25T10:57:19;101306.41;;;7.91;88.10
74613;BME280;63119;51.788;8.824;2024-01-25T10:59:44;101307.47;;;7.87;87.27
74613;BME280;63119;51.788;8.824;2024-01-25T11:02:10;101303.09;;;7.86;88.21
74613;BME280;63119;51.788;8.824;2024-01-25T11:04:36;101301.31;;;7.86;88.00
74613;BME280;63119;51.788;8.824;2024-01-25T11:07:08;101301.56;;;7.79;87.92
74613;BME280;63119;51.788;8.824;2024-01-25T11:09:35;101293.63;;;7.80;87.44
74613;BME280;63119;51.788;8.824;2024-01-25T11:12:11;101290.81;;;7.85;87.65
74613;BME280;63119;51.788;8.824;2024-01-25T11:14:37;101291.97;;;7.78;87.95
74613;BME280;63119;51.788;8.824;2024-01-25T11:17:15;101292.34;;;7.92;87.35
74613;BME280;63119;51.788;8.824;2024-01-25T11:19:40;101298.13;;;8.01;86.88
74613;BME280;63119;51.788;8.824;2024-01-25T11:22:05;101292.53;;;8.10;86.83
74613;BME280;63119;51.788;8.824;2024-01-25T11:24:37;101301.41;;;8.08;87.10
74613;BME280;63119;51.788;8.824;2024-01-25T11:27:04;101294.53;;;8.04;85.87
74613;BME280;63119;51.788;8.824;2024-01-25T11:29:30;101295.84;;;8.15;85.56
74613;BME280;63119;51.788;8.824;2024-01-25T11:31:55;101287.78;;;8.20;85.46
74613;BME280;63119;51.788;8.824;2024-01-25T11:34:22;101290.28;;;8.23;85.68
74613;BME280;63119;51.788;8.824;2024-01-25T11:36:48;101279.28;;;8.12;85.37
74613;BME280;63119;51.788;8.824;2024-01-25T11:39:15;101283.63;;;8.13;85.58
74613;BME280;63119;51.788;8.824;2024-01-25T11:41:42;101277.28;;;8.18;86.49
74613;BME280;63119;51.788;8.824;2024-01-25T11:44:09;101270.84;;;8.25;85.65
74613;BME280;63119;51.788;8.824;2024-01-25T11:46:35;101259.69;;;8.42;85.02
74613;BME280;63119;51.788;8.824;2024-01-25T11:49:00;101265.50;;;8.29;84.87
74613;BME280;63119;51.788;8.824;2024-01-25T11:51:25;101261.75;;;8.11;85.25
74613;BME280;63119;51.788;8.824;2024-01-25T11:53:51;101276.72;;;8.10;84.82
74613;BME280;63119;51.788;8.824;2024-01-25T11:56:31;101268.16;;;8.27;84.39
74613;BME280;63119;51.788;8.824;2024-01-25T11:58:57;101252.88;;;8.37;84.81
74613;BME280;63119;51.788;8.824;2024-01-25T12:01:24;101263.22;;;8.18;85.60
74613;BME280;63119;51.788;8.824;2024-01-25T12:03:50;101266.28;;;8.31;84.43
74613;BME280;63119;51.788;8.824;2024-01-25T12:06:17;101265.69;;;8.22;85.06
74613;BME280;63119;51.788;8.824;2024-01-25T12:08:42;101265.38;;;8.32;83.64
74613;BME280;63119;51.788;8.824;2024-01-25T12:11:08;101265.66;;;8.47;83.35
74613;BME280;63119;51.788;8.824;2024-01-25T12:13:44;101257.56;;;8.73;82.96
74613;BME280;63119;51.788;8.824;2024-01-25T12:16:10;101264.63;;;8.95;81.70
74613;BME280;63119;51.788;8.824;2024-01-25T12:18:37;101257.28;;;9.23;79.55
74613;BME280;63119;51.788;8.824;2024-01-25T12:21:03;101255.19;;;9.51;79.13
74613;BME280;63119;51.788;8.824;2024-01-25T12:23:40;101256.09;;;9.50;77.99
74613;BME280;63119;51.788;8.824;2024-01-25T12:26:10;101236.19;;;9.62;77.44
74613;BME280;63119;51.788;8.824;2024-01-25T12:28:36;101231.88;;;9.79;75.57
74613;BME280;63119;51.788;8.824;2024-01-25T12:31:03;101232.69;;;10.20;74.70
74613;BME280;63119;51.788;8.824;2024-01-25T12:33:29;101239.53;;;10.24;73.62
74613;BME280;63119;51.788;8.824;2024-01-25T12:35:54;101242.16;;;10.24;72.34
74613;BME280;63119;51.788;8.824;2024-01-25T12:38:20;101245.22;;;9.97;73.84
74613;BME280;63119;51.788;8.824;2024-01-25T12:40:49;101248.81;;;9.75;75.25
74613;BME280;63119;51.788;8.824;2024-01-25T12:43:18;101251.16;;;9.63;75.53
74613;BME280;63119;51.788;8.824;2024-01-25T12:45:44;101245.84;;;9.43;76.70
74613;BME280;63119;51.788;8.824;2024-01-25T12:48:10;101239.38;;;9.50;76.58
74613;BME280;63119;51.788;8.824;2024-01-25T12:50:36;101238.91;;;10.38;74.79
74613;BME280;63119;51.788;8.824;2024-01-25T12:53:02;101229.34;;;10.71;73.56